createdAt,value
2019-02-23T00:00:46.201Z,12.22
2019-02-23T00:05:53.941Z,13.16
2019-02-23T00:10:59.934Z,12.70
2019-02-23T00:16:07.606Z,14.08
2019-02-23T00:21:15.222Z,13.82
2019-02-23T00:26:23.050Z,13.64
2019-02-23T00:31:30.730Z,14.53
2019-02-23T00:36:38.491Z,15.00
2019-02-23T00:41:46.143Z,15.04
2019-02-23T00:46:53.973Z,14.33
2019-02-23T00:52:01.611Z,16.17
2019-02-23T00:57:09.242Z,14.88
2019-02-23T01:02:16.904Z,15.52
2019-02-23T01:07:24.669Z,15.64
2019-02-23T01:12:32.274Z,16.28
2019-02-23T01:17:40.144Z,15.99
2019-02-23T01:22:47.790Z,16.04
2019-02-23T01:27:55.545Z,16.25
2019-02-23T01:33:03.222Z,16.35
2019-02-23T01:38:11.045Z,15.99
2019-02-23T01:43:18.709Z,16.94
2019-02-23T01:48:27.441Z,16.94
2019-02-23T01:53:35.198Z,17.72
2019-02-23T01:58:43.018Z,18.57
2019-02-23T02:03:50.685Z,17.94
2019-02-23T02:08:58.658Z,17.37
2019-02-23T02:14:06.310Z,18.52
2019-02-23T02:19:14.037Z,18.72
2019-02-23T02:24:21.733Z,18.32
2019-02-23T02:29:29.491Z,17.31
2019-02-23T02:34:37.152Z,18.40
2019-02-23T02:39:44.939Z,19.01
2019-02-23T02:44:52.522Z,18.37
2019-02-23T02:50:00.333Z,18.04
2019-02-23T02:55:08.058Z,19.27
2019-02-23T03:00:15.741Z,17.81
2019-02-23T03:05:23.454Z,19.12
2019-02-23T03:10:31.226Z,18.52
2019-02-23T03:15:39.363Z,18.19
2019-02-23T03:20:46.995Z,19.64
2019-02-23T03:25:54.998Z,19.56
2019-02-23T03:31:02.695Z,19.37
2019-02-23T03:36:10.878Z,19.78
2019-02-23T03:41:18.597Z,19.86
2019-02-23T03:46:26.446Z,19.58
2019-02-23T03:51:34.117Z,20.13
2019-02-23T03:56:42.009Z,21.48
2019-02-23T04:01:49.714Z,19.07
2019-02-23T04:06:57.466Z,20.73
2019-02-23T04:12:05.178Z,20.61
2019-02-23T04:17:12.838Z,19.56
2019-02-23T04:22:20.599Z,19.63
2019-02-23T04:27:28.094Z,19.99
2019-02-23T04:32:36.916Z,18.91
2019-02-23T04:37:44.563Z,19.36
2019-02-23T04:42:52.193Z,18.86
2019-02-23T04:48:00.033Z,19.28
2019-02-23T04:53:07.707Z,19.13
2019-02-23T04:58:15.305Z,18.52
2019-02-23T05:03:23.019Z,19.00
2019-02-23T05:08:30.736Z,19.81
2019-02-23T05:13:38.460Z,17.98
2019-02-23T05:18:47.065Z,19.25
2019-02-23T05:23:54.773Z,18.07
2019-02-23T05:29:02.394Z,18.16
2019-02-23T05:34:10.173Z,18.30
2019-02-23T05:39:17.936Z,17.64
2019-02-23T05:44:25.462Z,17.52
2019-02-23T05:49:36.842Z,18.01
2019-02-23T05:54:41.765Z,18.09
2019-02-23T05:59:49.392Z,17.24
2019-02-23T06:04:57.486Z,17.36
2019-02-23T06:10:05.107Z,18.69
2019-02-23T06:15:12.793Z,16.84
2019-02-23T06:20:21.456Z,17.05
2019-02-23T06:25:30.286Z,16.85
2019-02-23T06:30:37.908Z,17.09
2019-02-23T06:35:45.557Z,16.64
2019-02-23T06:40:59.098Z,16.93
2019-02-23T06:45:56.897Z,16.48
2019-02-23T06:51:04.598Z,16.54
2019-02-23T06:56:12.201Z,16.93
2019-02-23T07:01:20.181Z,15.37
2019-02-23T07:06:30.017Z,16.07
2019-02-23T07:11:37.824Z,15.47
2019-02-23T07:16:45.667Z,15.99
2019-02-23T07:21:53.511Z,16.84
2019-02-23T07:27:01.134Z,16.47
2019-02-23T07:32:08.875Z,15.46
2019-02-23T07:37:17.466Z,15.65
2019-02-23T07:42:26.152Z,16.01
2019-02-23T07:47:34.826Z,16.76
2019-02-23T07:52:43.452Z,15.69
2019-02-23T07:57:51.157Z,16.91
2019-02-23T08:02:58.918Z,16.33
2019-02-23T08:08:06.580Z,15.90
2019-02-23T08:13:14.309Z,15.60
2019-02-23T08:18:21.974Z,14.20
2019-02-23T08:23:29.728Z,15.25
2019-02-23T08:28:37.378Z,13.83
2019-02-23T08:33:45.853Z,14.76
2019-02-23T08:38:53.845Z,14.64
2019-02-23T08:44:01.533Z,14.39
2019-02-23T08:49:09.232Z,14.97
2019-02-23T08:54:16.829Z,14.00
2019-02-23T08:59:24.501Z,13.96
2019-02-23T09:04:32.226Z,25.62
2019-02-23T09:09:39.955Z,14.89
2019-02-23T09:14:47.694Z,14.15
2019-02-23T09:19:55.331Z,14.09
2019-02-23T09:25:03.689Z,13.93
2019-02-23T09:30:12.161Z,13.55
2019-02-23T09:35:19.930Z,14.32
2019-02-23T09:40:27.677Z,13.25
2019-02-23T09:45:35.438Z,13.71
2019-02-23T09:50:43.162Z,13.28
2019-02-23T09:55:50.943Z,14.21
2019-02-23T10:00:58.537Z,13.56
2019-02-23T10:06:06.285Z,12.72
2019-02-23T10:11:13.932Z,24.22
2019-02-23T10:16:21.753Z,13.37
2019-02-23T10:21:29.421Z,13.05
2019-02-23T10:26:37.214Z,13.12
2019-02-23T10:31:44.869Z,12.74
2019-02-23T10:36:52.564Z,13.11
2019-02-23T10:42:00.304Z,13.29
2019-02-23T10:47:07.920Z,13.84
2019-02-23T10:52:15.541Z,12.53
2019-02-23T10:57:23.398Z,13.20
2019-02-23T11:02:31.026Z,13.36
2019-02-23T11:07:39.038Z,14.06
2019-02-23T11:12:46.638Z,13.69
2019-02-23T11:17:54.709Z,13.77
2019-02-23T11:23:02.409Z,14.56
2019-02-23T11:28:10.166Z,13.68
2019-02-23T11:33:18.645Z,13.16
2019-02-23T11:38:26.393Z,13.93
2019-02-23T11:43:34.048Z,13.00
2019-02-23T11:48:41.766Z,13.60
2019-02-23T11:53:54.881Z,12.76
2019-02-23T11:58:56.593Z,13.51
2019-02-23T12:04:04.183Z,12.20
2019-02-23T12:09:11.889Z,12.73
2019-02-23T12:14:19.643Z,12.42
2019-02-23T12:19:27.254Z,12.44
2019-02-23T12:24:34.930Z,14.01
2019-02-23T12:29:42.678Z,13.63
2019-02-23T12:34:50.289Z,12.95
2019-02-23T12:39:58.029Z,12.70
2019-02-23T12:45:05.633Z,12.60
2019-02-23T12:50:13.473Z,13.78
2019-02-23T12:55:21.050Z,12.18
2019-02-23T13:00:28.837Z,14.54
2019-02-23T13:05:36.419Z,12.01
2019-02-23T13:10:44.360Z,12.87
2019-02-23T13:15:51.972Z,12.62
2019-02-23T13:20:59.734Z,12.34
2019-02-23T13:26:07.409Z,11.98
2019-02-23T13:31:15.129Z,12.71
2019-02-23T13:36:22.826Z,13.53
2019-02-23T13:41:30.496Z,11.75
2019-02-23T13:46:38.134Z,11.68
2019-02-23T13:51:45.957Z,12.57
2019-02-23T13:56:53.826Z,13.90
2019-02-23T14:02:01.597Z,12.47
2019-02-23T14:07:09.247Z,12.30
2019-02-23T14:12:17.139Z,12.50
2019-02-23T14:17:24.898Z,11.88
2019-02-23T14:22:32.694Z,11.69
2019-02-23T14:27:40.461Z,11.17
2019-02-23T14:32:48.313Z,11.99
2019-02-23T14:37:56.002Z,11.84
2019-02-23T14:43:03.753Z,11.29
2019-02-23T14:48:11.560Z,11.58
2019-02-23T14:53:19.629Z,11.87
2019-02-23T14:58:27.346Z,11.83
2019-02-23T15:03:35.006Z,11.58
2019-02-23T15:08:42.777Z,12.28
2019-02-23T15:13:50.446Z,12.50
2019-02-23T15:18:58.189Z,12.54
2019-02-23T15:24:05.821Z,11.72
2019-02-23T15:29:13.586Z,11.90
2019-02-23T15:34:21.634Z,12.12
2019-02-23T15:39:29.309Z,13.10
2019-02-23T15:44:37.021Z,12.77
2019-02-23T15:49:44.849Z,12.21
2019-02-23T15:54:52.454Z,11.92
2019-02-23T16:00:00.390Z,12.08
2019-02-23T16:05:07.774Z,12.20
2019-02-23T16:10:17.753Z,12.96
2019-02-23T16:15:22.893Z,12.78
2019-02-23T16:20:31.374Z,12.62
2019-02-23T16:25:39.362Z,11.92
2019-02-23T16:30:46.970Z,11.95
2019-02-23T16:35:55.545Z,12.76
2019-02-23T16:41:03.251Z,12.51
2019-02-23T16:46:10.842Z,13.27
2019-02-23T16:51:18.582Z,12.77
2019-02-23T16:56:26.311Z,14.38
2019-02-23T17:01:34.057Z,13.65
2019-02-23T17:06:41.726Z,14.13
2019-02-23T17:11:49.449Z,14.37
2019-02-23T17:16:57.173Z,13.09
2019-02-23T17:22:04.922Z,13.57
2019-02-23T17:27:12.517Z,14.84
2019-02-23T17:32:20.206Z,13.49
2019-02-23T17:37:27.914Z,13.46
2019-02-23T17:42:35.586Z,14.90
2019-02-23T17:47:43.227Z,17.88
2019-02-23T17:52:51.217Z,16.14
2019-02-23T17:57:58.821Z,16.61
2019-02-23T18:03:06.581Z,18.80
2019-02-23T18:08:14.181Z,16.69
2019-02-23T18:13:21.967Z,15.26
2019-02-23T18:18:29.573Z,16.72
2019-02-23T18:23:37.289Z,16.37
2019-02-23T18:28:44.911Z,17.00
2019-02-23T18:33:52.607Z,17.07
2019-02-23T18:39:00.342Z,17.63
2019-02-23T18:44:08.056Z,17.89
2019-02-23T18:49:15.673Z,17.93
2019-02-23T18:54:24.292Z,18.99
2019-02-23T18:59:31.878Z,20.15
2019-02-23T19:04:39.552Z,19.12
2019-02-23T19:09:48.167Z,19.31
2019-02-23T19:14:55.844Z,18.45
2019-02-23T19:20:03.608Z,20.39
2019-02-23T19:25:11.309Z,22.83
2019-02-23T19:30:18.942Z,23.36
2019-02-23T19:35:26.720Z,22.64
2019-02-23T19:40:34.434Z,22.37
2019-02-23T19:45:42.195Z,21.74
2019-02-23T19:50:49.968Z,22.03
2019-02-23T19:55:57.844Z,22.07
2019-02-23T20:01:05.487Z,20.26
2019-02-23T20:06:13.160Z,21.28
2019-02-23T20:11:21.978Z,25.22
2019-02-23T20:16:29.859Z,20.99
2019-02-23T20:21:37.577Z,21.85
2019-02-23T20:26:45.154Z,20.29
2019-02-23T20:31:52.773Z,20.61
2019-02-23T20:37:00.513Z,18.05
2019-02-23T20:42:08.289Z,18.65
2019-02-23T20:47:17.368Z,18.34
2019-02-23T20:52:23.550Z,31.60
2019-02-23T20:57:31.373Z,16.83
2019-02-23T21:02:39.154Z,17.06
2019-02-23T21:07:46.852Z,15.43
2019-02-23T21:12:54.879Z,17.16
2019-02-23T21:18:02.742Z,15.85
2019-02-23T21:23:10.714Z,15.26
2019-02-23T21:28:18.385Z,14.62
2019-02-23T21:33:26.024Z,14.83
2019-02-23T21:38:33.706Z,13.98
2019-02-23T21:43:41.389Z,12.88
2019-02-23T21:48:49.127Z,14.56
2019-02-23T21:53:56.802Z,13.52
2019-02-23T21:59:04.718Z,12.24
2019-02-23T22:04:12.653Z,12.32
2019-02-23T22:09:20.462Z,12.31
2019-02-23T22:14:28.421Z,12.36
2019-02-23T22:19:36.081Z,12.46
2019-02-23T22:24:44.686Z,12.16
2019-02-23T22:29:52.401Z,12.73
2019-02-23T22:35:00.548Z,12.67
2019-02-23T22:40:07.429Z,12.13
2019-02-23T22:45:15.175Z,12.23
2019-02-23T22:50:22.865Z,12.32
2019-02-23T22:55:30.561Z,13.02
2019-02-23T23:00:38.233Z,13.08
2019-02-23T23:05:45.990Z,11.94
2019-02-23T23:10:53.754Z,13.11
2019-02-23T23:16:01.521Z,11.64
2019-02-23T23:21:09.368Z,12.43
2019-02-23T23:26:17.146Z,12.47
2019-02-23T23:31:24.857Z,12.86
2019-02-23T23:36:32.536Z,14.43
2019-02-23T23:41:40.347Z,13.59
2019-02-23T23:46:47.982Z,13.04
2019-02-23T23:51:55.791Z,13.78
2019-02-23T23:57:03.400Z,15.21
